Time;durP1;ratioP1;P1;durP2;ratioP2;P2;SDS_P1;SDS_P2;PMS_P1;PMS_P2;Temp;Humidity;BMP_temperature;BMP_pressure;BME280_temperature;BME280_humidity;BME280_pressure;Samples;Min_cycle;Max_cycle;Signal;HPM_P1;HPM_P2
2022/11/14 00:00:35;;;;;;;108.28;44.95;;;;;;;13.35;100.00;98817.78;6275549;22;20011;-79
2022/11/14 00:03:04;;;;;;;108.40;44.75;;;;;;;13.41;100.00;98811.66;6275158;22;20391;-80
2022/11/14 00:05:30;;;;;;;105.35;42.80;;;;;;;13.45;100.00;98799.69;6275504;22;20031;-80
2022/11/14 00:07:58;;;;;;;104.45;44.13;;;;;;;13.54;100.00;98803.63;6275197;22;20015;-79
2022/11/14 00:10:24;;;;;;;107.68;44.85;;;;;;;13.59;100.00;98799.53;6247889;22;20022;-79
2022/11/14 00:12:50;;;;;;;100.05;43.50;;;;;;;13.60;100.00;98807.22;6248000;22;20008;-79
2022/11/14 00:15:16;;;;;;;111.72;46.83;;;;;;;13.55;100.00;98799.97;6248294;22;20011;-80
2022/11/14 00:17:41;;;;;;;116.88;47.65;;;;;;;13.52;100.00;98800.41;6248269;22;20296;-80
2022/11/14 00:20:09;;;;;;;115.00;45.00;;;;;;;13.52;100.00;98803.03;6275272;22;20106;-80
2022/11/14 00:22:35;;;;;;;105.78;44.72;;;;;;;13.54;100.00;98798.34;6247250;22;20101;-79
2022/11/14 00:25:00;;;;;;;107.95;46.70;;;;;;;13.53;100.00;98795.94;6248295;22;20007;-80
2022/11/14 00:27:26;;;;;;;119.93;46.53;;;;;;;13.46;100.00;98784.66;6222619;22;20326;-80
2022/11/14 00:29:52;;;;;;;98.72;44.60;;;;;;;13.49;100.00;98787.66;6248701;22;20008;-79
2022/11/14 00:32:17;;;;;;;104.22;43.97;;;;;;;13.49;100.00;98773.69;6275045;22;20087;-79
2022/11/14 00:34:43;;;;;;;96.80;41.63;;;;;;;13.50;100.00;98768.19;6248276;22;20012;-79
2022/11/14 00:37:09;;;;;;;96.47;42.50;;;;;;;13.36;100.00;98766.69;6274844;22;20021;-79
2022/11/14 00:39:34;;;;;;;102.03;42.45;;;;;;;13.38;100.00;98757.53;6274150;22;20004;-79
2022/11/14 00:42:00;;;;;;;100.10;43.45;;;;;;;13.29;100.00;98767.56;6274967;22;20011;-79
2022/11/14 00:44:25;;;;;;;96.45;41.95;;;;;;;13.27;100.00;98756.44;6247803;22;20094;-79
2022/11/14 00:46:51;;;;;;;84.50;37.80;;;;;;;13.25;100.00;98752.41;6275085;22;20035;-79
2022/11/14 00:49:16;;;;;;;105.47;40.97;;;;;;;13.22;100.00;98752.84;6275332;22;20019;-80
2022/11/14 00:51:41;;;;;;;90.85;40.83;;;;;;;13.23;100.00;98757.91;6274502;22;20554;-79
2022/11/14 00:54:07;;;;;;;90.28;40.90;;;;;;;13.29;100.00;98758.88;6248043;22;20011;-79
2022/11/14 00:56:33;;;;;;;92.72;41.72;;;;;;;13.27;100.00;98756.44;6275307;22;20680;-80
2022/11/14 00:58:58;;;;;;;99.93;43.50;;;;;;;13.19;100.00;98754.09;6274656;22;20035;-79
2022/11/14 01:01:24;;;;;;;97.13;42.92;;;;;;;13.20;100.00;98739.91;6248200;22;20042;-80
2022/11/14 01:03:51;;;;;;;102.28;43.60;;;;;;;13.20;100.00;98739.09;6275347;22;20113;-80
2022/11/14 01:06:17;;;;;;;106.93;44.38;;;;;;;13.25;100.00;98736.59;6222411;22;20012;-81
2022/11/14 01:08:43;;;;;;;114.28;46.33;;;;;;;13.22;100.00;98729.94;6248088;22;20046;-80
2022/11/14 01:11:16;;;;;;;106.47;46.28;;;;;;;13.31;100.00;98729.63;6275467;22;20037;-79
2022/11/14 01:13:41;;;;;;;111.77;45.83;;;;;;;13.31;100.00;98721.72;6275050;22;20003;-80
2022/11/14 01:16:07;;;;;;;104.85;44.78;;;;;;;13.25;100.00;98724.22;6248516;22;20034;-79
2022/11/14 01:18:33;;;;;;;107.32;45.47;;;;;;;13.16;100.00;98717.63;6248398;22;20015;-81
2022/11/14 01:20:59;;;;;;;103.05;44.65;;;;;;;13.12;100.00;98709.38;6247780;22;20012;-81
2022/11/14 01:23:24;;;;;;;115.78;46.97;;;;;;;13.14;100.00;98709.94;6248215;22;20016;-80
2022/11/14 01:25:50;;;;;;;118.82;46.90;;;;;;;13.07;100.00;98701.31;6275082;22;20014;-80
2022/11/14 01:28:17;;;;;;;110.35;45.53;;;;;;;13.12;100.00;98703.28;6275177;22;20007;-80
2022/11/14 01:30:44;;;;;;;106.15;42.67;;;;;;;13.15;100.00;98700.19;6248509;22;20015;-80
2022/11/14 01:33:10;;;;;;;107.07;44.60;;;;;;;13.06;100.00;98699.69;6276334;22;20367;-79
2022/11/14 01:35:37;;;;;;;98.45;42.30;;;;;;;13.19;100.00;98706.66;6225082;22;20012;-81
2022/11/14 01:38:04;;;;;;;106.35;42.88;;;;;;;13.11;100.00;98704.31;6275110;22;20008;-81
2022/11/14 01:40:31;;;;;;;103.82;44.05;;;;;;;13.20;100.00;98702.19;6275166;22;20434;-81
2022/11/14 01:43:15;;;;;;;106.00;43.85;;;;;;;13.12;100.00;98701.47;6275183;22;20015;-80
2022/11/14 01:45:46;;;;;;;94.70;40.97;;;;;;;13.19;100.00;98696.13;6274852;22;20008;-80
2022/11/14 01:48:41;;;;;;;105.07;44.15;;;;;;;13.15;100.00;98689.66;6275099;22;20092;-80
2022/11/14 01:51:20;;;;;;;103.28;44.25;;;;;;;13.19;100.00;98682.13;6270944;22;20388;-81
2022/11/14 01:53:49;;;;;;;108.03;44.85;;;;;;;13.19;100.00;98684.75;6275060;22;20016;-80
2022/11/14 01:56:18;;;;;;;114.97;47.22;;;;;;;13.17;100.00;98690.28;6274978;22;20071;-80
2022/11/14 01:58:50;;;;;;;108.38;43.85;;;;;;;13.23;100.00;98691.19;6247608;22;20020;-81
2022/11/14 02:01:15;;;;;;;100.70;43.53;;;;;;;13.25;100.00;98695.22;6248205;22;20007;-81
2022/11/14 02:03:44;;;;;;;107.45;46.45;;;;;;;13.29;100.00;98690.34;6247435;22;20019;-80
2022/11/14 02:06:14;;;;;;;103.25;45.10;;;;;;;13.31;100.00;98692.72;6247455;22;20751;-81
2022/11/14 02:08:41;;;;;;;104.75;44.67;;;;;;;13.32;100.00;98689.06;6275084;22;20377;-80
2022/11/14 02:11:10;;;;;;;105.00;44.60;;;;;;;13.38;100.00;98690.84;6274462;22;20011;-80
2022/11/14 02:13:36;;;;;;;105.10;44.40;;;;;;;13.36;100.00;98690.22;6274418;22;20003;-81
2022/11/14 02:16:01;;;;;;;106.82;46.85;;;;;;;13.40;100.00;98686.16;6247887;22;20014;-80
2022/11/14 02:18:27;;;;;;;101.13;44.80;;;;;;;13.37;100.00;98681.31;6274107;22;20022;-81
2022/11/14 02:20:52;;;;;;;103.75;43.40;;;;;;;13.34;100.00;98673.84;6248119;22;20326;-81
2022/11/14 02:23:27;;;;;;;161.57;47.00;;;;;;;13.32;100.00;98673.25;6247824;22;20066;-81
2022/11/14 02:25:53;;;;;;;118.60;44.15;;;;;;;13.18;100.00;98670.78;6274764;22;20042;-80
2022/11/14 02:28:20;;;;;;;125.72;43.78;;;;;;;13.20;100.00;98667.91;6247883;22;20050;-79
2022/11/14 02:30:47;;;;;;;181.73;46.88;;;;;;;13.19;100.00;98661.88;6222137;22;20012;-81
2022/11/14 02:33:13;;;;;;;128.23;43.97;;;;;;;13.24;100.00;98667.28;6274474;22;20056;-80
2022/11/14 02:35:39;;;;;;;94.03;43.38;;;;;;;13.23;100.00;98652.47;6247647;22;20019;-81
2022/11/14 02:38:05;;;;;;;299.92;47.83;;;;;;;13.09;100.00;98653.66;6274162;22;20007;-80
2022/11/14 02:40:31;;;;;;;76.13;38.58;;;;;;;13.12;100.00;98653.22;6247521;22;20012;-80
2022/11/14 02:42:56;;;;;;;97.00;40.28;;;;;;;13.12;100.00;98640.03;6274352;22;20104;-81
2022/11/14 02:45:22;;;;;;;95.53;39.70;;;;;;;13.15;100.00;98639.59;6275525;22;20012;-80
2022/11/14 02:47:48;;;;;;;138.55;41.03;;;;;;;13.07;100.00;98634.63;6250652;22;20012;-81
2022/11/14 02:50:14;;;;;;;174.07;40.83;;;;;;;12.98;100.00;98637.56;6250737;22;20126;-80
2022/11/14 02:52:40;;;;;;;73.93;35.88;;;;;;;12.95;100.00;98640.63;6278127;22;20008;-81
2022/11/14 02:55:06;;;;;;;69.07;35.42;;;;;;;13.06;100.00;98643.56;6278031;22;20424;-81
2022/11/14 02:57:33;;;;;;;84.60;36.92;;;;;;;13.07;100.00;98632.00;6277684;22;20007;-80
2022/11/14 02:59:58;;;;;;;80.70;38.15;;;;;;;13.05;100.00;98626.16;6250918;22;20272;-80
2022/11/14 03:02:24;;;;;;;76.22;34.65;;;;;;;13.02;100.00;98621.31;6250805;22;20007;-81
2022/11/14 03:04:49;;;;;;;104.32;38.38;;;;;;;12.86;100.00;98618.25;6250714;22;20400;-81
2022/11/14 03:07:15;;;;;;;92.68;35.92;;;;;;;12.86;100.00;98615.63;6250927;22;20012;-80
2022/11/14 03:09:41;;;;;;;91.07;37.20;;;;;;;12.94;100.00;98617.16;6250682;22;20382;-80
2022/11/14 03:12:07;;;;;;;76.10;35.63;;;;;;;13.04;100.00;98619.28;6277771;22;20012;-80
2022/11/14 03:14:32;;;;;;;79.65;38.15;;;;;;;13.04;100.00;98614.00;6278035;22;20008;-80
2022/11/14 03:16:58;;;;;;;73.03;35.08;;;;;;;12.99;100.00;98612.00;6250598;22;20054;-80
2022/11/14 03:19:24;;;;;;;72.53;35.75;;;;;;;13.09;100.00;98612.31;6277645;22;20061;-80
2022/11/14 03:21:49;;;;;;;97.60;36.58;;;;;;;12.94;100.00;98604.78;6250836;22;20031;-80
2022/11/14 03:24:15;;;;;;;99.03;36.03;;;;;;;12.95;100.00;98595.84;6250834;22;20446;-80
2022/11/14 03:26:41;;;;;;;86.15;35.88;;;;;;;12.97;100.00;98599.09;6277817;22;20007;-80
2022/11/14 03:29:06;;;;;;;81.93;34.90;;;;;;;12.97;100.00;98599.09;6277550;22;20012;-80
2022/11/14 03:31:32;;;;;;;91.53;35.38;;;;;;;12.85;100.00;98598.19;6277135;22;20060;-80
2022/11/14 03:33:58;;;;;;;67.72;33.45;;;;;;;12.90;100.00;98600.97;6277333;22;20027;-80
2022/11/14 03:36:24;;;;;;;178.90;38.33;;;;;;;12.88;100.00;98594.34;6277712;22;20012;-80
2022/11/14 03:38:49;;;;;;;105.50;34.92;;;;;;;12.81;100.00;98583.88;6277655;22;20057;-80
2022/11/14 03:41:15;;;;;;;73.82;33.00;;;;;;;12.82;100.00;98588.13;6250568;22;20011;-80
2022/11/14 03:43:40;;;;;;;67.80;31.23;;;;;;;12.86;100.00;98571.63;6277377;22;20016;-80
2022/11/14 03:46:06;;;;;;;129.65;36.38;;;;;;;12.83;100.00;98577.34;6250187;22;20035;-81
2022/11/14 03:48:32;;;;;;;118.90;33.83;;;;;;;12.74;100.00;98565.50;6277530;22;20019;-80
2022/11/14 03:50:57;;;;;;;71.30;33.53;;;;;;;12.84;100.00;98578.16;6250400;22;20015;-80
2022/11/14 03:53:27;;;;;;;93.28;36.55;;;;;;;12.86;100.00;98581.38;6277049;22;20426;-81
2022/11/14 03:55:55;;;;;;;90.32;34.28;;;;;;;12.84;100.00;98586.84;6251085;22;20018;-81
2022/11/14 03:58:26;;;;;;;71.70;32.38;;;;;;;12.84;100.00;98580.78;6248411;22;20031;-81
2022/11/14 04:00:57;;;;;;;74.25;33.35;;;;;;;12.86;100.00;98573.47;6275653;22;20487;-80
2022/11/14 04:03:28;;;;;;;79.75;33.95;;;;;;;12.90;100.00;98560.66;6275781;22;20090;-80
2022/11/14 04:05:54;;;;;;;85.05;33.65;;;;;;;12.57;100.00;98541.56;6275432;22;20090;-81
2022/11/14 04:08:19;;;;;;;86.25;32.60;;;;;;;12.47;100.00;98538.66;6276237;22;20007;-80
2022/11/14 04:10:48;;;;;;;74.55;31.67;;;;;;;12.45;100.00;98532.81;6275720;22;20368;-81
2022/11/14 04:13:15;;;;;;;81.82;32.15;;;;;;;12.62;100.00;98523.31;6275474;22;20007;-81
2022/11/14 04:15:42;;;;;;;83.28;31.05;;;;;;;12.64;100.00;98529.16;6247933;22;20007;-81
2022/11/14 04:18:07;;;;;;;83.63;32.10;;;;;;;12.54;100.00;98534.13;6248265;22;20507;-79
2022/11/14 04:20:33;;;;;;;78.35;30.23;;;;;;;12.59;100.00;98539.56;6248889;22;20562;-79
2022/11/14 04:22:59;;;;;;;66.82;29.17;;;;;;;12.59;100.00;98550.09;6275232;22;20054;-79
2022/11/14 04:25:25;;;;;;;94.47;32.95;;;;;;;12.59;100.00;98549.25;6248492;22;20149;-80
2022/11/14 04:27:50;;;;;;;68.13;31.70;;;;;;;12.67;100.00;98536.63;6275799;22;20016;-80
2022/11/14 04:30:17;;;;;;;79.95;31.15;;;;;;;12.60;100.00;98540.34;6275365;22;20021;-82
2022/11/14 04:32:47;;;;;;;69.03;30.00;;;;;;;12.62;100.00;98539.09;6248550;22;20335;-80
2022/11/14 04:35:14;;;;;;;70.05;31.17;;;;;;;12.64;100.00;98541.50;6275735;22;20018;-79
2022/11/14 04:37:39;;;;;;;72.55;30.50;;;;;;;12.51;100.00;98526.66;6248439;22;20046;-79
2022/11/14 04:40:06;;;;;;;69.47;30.23;;;;;;;12.51;100.00;98521.41;6248471;22;20011;-79
2022/11/14 04:42:31;;;;;;;68.47;28.67;;;;;;;12.55;100.00;98531.28;6248041;22;20016;-79
2022/11/14 04:44:57;;;;;;;68.40;29.20;;;;;;;12.64;100.00;98528.34;6274787;22;20431;-79
2022/11/14 04:47:22;;;;;;;73.13;29.63;;;;;;;12.48;100.00;98521.84;6275400;22;20012;-79
2022/11/14 04:49:48;;;;;;;84.03;30.42;;;;;;;12.50;100.00;98525.06;6248472;22;20014;-79
2022/11/14 04:52:13;;;;;;;61.83;27.13;;;;;;;12.60;100.00;98530.63;6275324;22;20468;-79
2022/11/14 04:54:39;;;;;;;76.20;29.25;;;;;;;12.57;100.00;98529.22;6275529;22;20012;-80
2022/11/14 04:57:04;;;;;;;64.10;27.95;;;;;;;12.51;100.00;98516.13;6222810;22;20381;-80
2022/11/14 04:59:30;;;;;;;73.07;28.15;;;;;;;12.42;100.00;98513.81;6248097;22;20075;-79
2022/11/14 05:01:56;;;;;;;71.65;29.70;;;;;;;12.41;100.00;98514.84;6275499;22;20007;-79
2022/11/14 05:04:21;;;;;;;85.97;28.40;;;;;;;12.38;100.00;98517.91;6248264;22;20004;-80
2022/11/14 05:06:47;;;;;;;64.70;26.33;;;;;;;12.38;100.00;98509.19;6275200;22;20017;-81
2022/11/14 05:09:13;;;;;;;62.80;29.08;;;;;;;12.40;100.00;98513.22;6275522;22;20039;-81
2022/11/14 05:11:40;;;;;;;84.82;28.48;;;;;;;12.33;100.00;98514.31;6275190;22;20134;-80
2022/11/14 05:14:05;;;;;;;77.75;30.02;;;;;;;12.29;100.00;98519.22;6274939;22;20388;-81
2022/11/14 05:16:31;;;;;;;66.53;28.35;;;;;;;12.33;100.00;98527.47;6275465;22;20103;-81
2022/11/14 05:18:56;;;;;;;67.60;28.55;;;;;;;12.38;100.00;98523.19;6274922;22;20087;-81
2022/11/14 05:21:22;;;;;;;209.55;33.95;;;;;;;12.28;100.00;98522.88;6275553;22;20003;-81
2022/11/14 05:23:47;;;;;;;71.97;29.52;;;;;;;12.27;100.00;98513.34;6274413;22;20335;-81
2022/11/14 05:26:15;;;;;;;67.00;29.40;;;;;;;12.26;100.00;98514.38;6247848;22;20015;-81
2022/11/14 05:28:41;;;;;;;69.75;30.02;;;;;;;12.31;100.00;98511.91;6247488;22;20015;-81
2022/11/14 05:31:09;;;;;;;81.35;29.70;;;;;;;12.35;100.00;98517.53;6274450;22;20008;-80
2022/11/14 05:33:35;;;;;;;59.53;27.58;;;;;;;12.30;100.00;98536.59;6275160;22;20012;-80
2022/11/14 05:36:09;;;;;;;71.20;29.20;;;;;;;12.36;100.00;98540.97;6274822;22;20451;-81
2022/11/14 05:38:34;;;;;;;60.75;28.15;;;;;;;12.33;100.00;98535.38;6221888;22;20403;-81
2022/11/14 05:41:08;;;;;;;230.70;35.75;;;;;;;12.31;100.00;98534.78;6274820;22;20018;-80
2022/11/14 05:43:34;;;;;;;71.10;29.60;;;;;;;12.25;100.00;98515.41;6274714;22;20018;-80
2022/11/14 05:46:02;;;;;;;96.68;30.00;;;;;;;12.12;100.00;98509.25;6274618;22;20102;-80
2022/11/14 05:48:29;;;;;;;78.35;29.33;;;;;;;12.14;100.00;98495.88;6247453;22;20043;-80
2022/11/14 05:50:56;;;;;;;78.18;30.55;;;;;;;12.10;100.00;98484.97;6247478;22;20025;-81
2022/11/14 05:53:21;;;;;;;74.00;29.95;;;;;;;12.03;100.00;98492.16;6275525;22;20038;-81
2022/11/14 05:55:47;;;;;;;74.07;28.38;;;;;;;12.03;100.00;98491.34;6247734;22;20015;-80
2022/11/14 05:58:12;;;;;;;67.45;29.70;;;;;;;11.94;100.00;98488.97;6274912;22;20015;-81
2022/11/14 06:00:38;;;;;;;61.10;30.48;;;;;;;12.04;100.00;98491.13;6247947;22;20035;-81
2022/11/14 06:03:03;;;;;;;95.00;32.22;;;;;;;12.06;100.00;98486.44;6274825;22;20400;-80
2022/11/14 06:05:30;;;;;;;76.90;31.02;;;;;;;12.08;100.00;98478.31;6274639;22;20012;-81
2022/11/14 06:07:57;;;;;;;63.28;29.27;;;;;;;12.16;100.00;98485.94;6274774;22;20085;-80
2022/11/14 06:10:22;;;;;;;237.68;37.15;;;;;;;11.99;100.00;98483.06;6274438;22;20022;-80
2022/11/14 06:12:48;;;;;;;108.90;32.05;;;;;;;11.93;100.00;98483.91;6247856;22;20086;-80
2022/11/14 06:15:14;;;;;;;63.28;31.42;;;;;;;11.98;100.00;98484.06;6274755;22;20015;-80
2022/11/14 06:17:40;;;;;;;56.80;27.40;;;;;;;12.04;100.00;98485.06;6274425;22;20085;-80
2022/11/14 06:20:06;;;;;;;56.65;27.73;;;;;;;12.05;100.00;98482.22;6274148;22;20042;-80
2022/11/14 06:22:33;;;;;;;57.05;29.95;;;;;;;12.08;100.00;98492.28;6274434;22;20012;-80
2022/11/14 06:24:59;;;;;;;193.18;37.22;;;;;;;11.99;100.00;98488.31;6273670;22;20403;-80
2022/11/14 06:27:24;;;;;;;74.20;31.50;;;;;;;11.92;100.00;98495.44;6274666;22;20012;-80
2022/11/14 06:29:50;;;;;;;64.18;30.23;;;;;;;11.99;100.00;98489.09;6274614;22;20464;-81
2022/11/14 06:32:16;;;;;;;67.05;31.73;;;;;;;11.92;100.00;98488.38;6274184;22;20011;-81
2022/11/14 06:34:41;;;;;;;65.97;30.05;;;;;;;11.93;100.00;98483.91;6247671;22;20007;-81
2022/11/14 06:37:07;;;;;;;65.20;31.63;;;;;;;11.93;100.00;98484.72;6274136;22;20086;-80
2022/11/14 06:39:32;;;;;;;82.72;32.45;;;;;;;11.90;100.00;98482.53;6247422;22;20332;-80
2022/11/14 06:41:58;;;;;;;191.88;37.03;;;;;;;11.85;100.00;98477.91;6274203;22;20397;-80
2022/11/14 06:44:24;;;;;;;152.05;35.35;;;;;;;11.79;100.00;98488.50;6273912;22;20020;-80
2022/11/14 06:46:49;;;;;;;114.90;34.20;;;;;;;11.83;100.00;98479.97;6274837;22;20338;-80
2022/11/14 06:49:14;;;;;;;74.03;31.52;;;;;;;11.88;100.00;98491.66;6274561;22;20014;-80
2022/11/14 06:51:40;;;;;;;63.47;29.83;;;;;;;11.92;100.00;98498.06;6274067;22;20016;-80
2022/11/14 06:54:06;;;;;;;82.10;32.33;;;;;;;11.94;100.00;98496.84;6274306;22;20007;-79
2022/11/14 06:56:31;;;;;;;65.72;30.42;;;;;;;11.97;100.00;98500.84;6273353;22;20074;-79
2022/11/14 06:58:57;;;;;;;65.65;32.05;;;;;;;12.03;100.00;98497.41;6247282;22;20011;-80
2022/11/14 07:01:27;;;;;;;70.72;34.08;;;;;;;12.02;100.00;98487.91;6273962;22;20091;-81
2022/11/14 07:03:53;;;;;;;161.50;39.35;;;;;;;11.98;100.00;98489.31;6246772;22;20488;-80
2022/11/14 07:06:24;;;;;;;79.88;33.20;;;;;;;11.95;100.00;98487.13;6223213;22;20011;-86
2022/11/14 07:08:51;;;;;;;306.17;45.33;;;;;;;11.79;100.00;98481.41;6247662;22;20016;-82
2022/11/14 07:11:22;;;;;;;95.75;34.47;;;;;;;11.84;100.00;98478.94;6246774;22;20020;-83
2022/11/14 07:13:49;;;;;;;80.82;32.25;;;;;;;11.87;100.00;98475.06;6274278;22;20019;-82
2022/11/14 07:16:16;;;;;;;91.55;32.30;;;;;;;11.74;100.00;98462.06;6273820;22;20030;-82
2022/11/14 07:18:41;;;;;;;215.15;37.90;;;;;;;11.75;100.00;98467.06;6247226;22;20015;-81
2022/11/14 07:21:07;;;;;;;91.10;33.42;;;;;;;11.82;100.00;98452.06;6274017;22;20069;-81
2022/11/14 07:23:34;;;;;;;65.28;30.63;;;;;;;11.99;100.00;98469.91;6241211;23;20402;-82
2022/11/14 07:26:08;;;;;;;96.90;34.17;;;;;;;11.93;100.00;98457.59;6241385;23;20312;-84
2022/11/14 07:28:38;;;;;;;;;;;;;;;11.92;100.00;98466.53;6242028;23;20340;-82
2022/11/14 07:31:06;;;;;;;63.55;28.90;;;;;;;12.04;100.00;98464.00;6215828;23;19918;-83
2022/11/14 07:33:33;;;;;;;66.78;29.67;;;;;;;12.10;100.00;98471.03;6243260;22;20008;-83
2022/11/14 07:35:58;;;;;;;78.07;30.10;;;;;;;12.08;100.00;98476.50;6244635;22;20012;-81
2022/11/14 07:38:24;;;;;;;91.95;30.88;;;;;;;11.90;100.00;98474.66;6244138;22;20012;-79
2022/11/14 07:41:03;;;;;;;70.97;28.45;;;;;;;12.01;100.00;98473.16;6244267;22;20124;-80
2022/11/14 07:43:31;;;;;;;64.22;28.38;;;;;;;11.99;100.00;98473.31;6245309;22;20036;-80
2022/11/14 07:46:03;;;;;;;66.38;27.63;;;;;;;12.09;100.00;98466.81;6218234;23;20103;-79
2022/11/14 07:48:30;;;;;;;62.55;28.00;;;;;;;12.02;100.00;98455.53;6245660;22;20008;-79
2022/11/14 07:51:00;;;;;;;62.40;26.60;;;;;;;12.16;100.00;98456.19;6217399;23;20388;-80
2022/11/14 07:53:27;;;;;;;66.05;28.73;;;;;;;12.08;100.00;98460.72;6244694;23;20031;-78
2022/11/14 07:55:54;;;;;;;61.90;28.45;;;;;;;12.12;100.00;98445.31;6244315;23;20000;-77
2022/11/14 07:58:19;;;;;;;60.85;27.15;;;;;;;12.04;100.00;98442.97;6244352;23;20012;-78
2022/11/14 08:00:45;;;;;;;60.15;26.67;;;;;;;12.15;100.00;98439.63;6244398;22;20317;-79
2022/11/14 08:03:11;;;;;;;68.97;27.52;;;;;;;12.14;100.00;98445.91;6244288;22;20030;-79
2022/11/14 08:05:38;;;;;;;69.95;28.80;;;;;;;12.16;100.00;98440.41;6244841;22;20016;-80
2022/11/14 08:08:03;;;;;;;59.83;27.05;;;;;;;12.25;100.00;98444.38;6245875;22;20066;-80
2022/11/14 08:10:29;;;;;;;57.45;26.25;;;;;;;12.31;100.00;98440.84;6244699;22;20007;-80
2022/11/14 08:13:00;;;;;;;58.95;26.92;;;;;;;12.44;100.00;98434.59;6246904;22;20054;-81
2022/11/14 08:15:25;;;;;;;56.92;27.02;;;;;;;12.47;100.00;98436.00;6245738;22;20083;-81
2022/11/14 08:17:51;;;;;;;59.63;26.88;;;;;;;12.46;100.00;98432.56;6243525;23;20447;-81
2022/11/14 08:20:18;;;;;;;82.88;28.05;;;;;;;12.57;100.00;98428.38;6243260;23;20012;-80
2022/11/14 08:22:43;;;;;;;55.15;26.85;;;;;;;12.62;100.00;98420.63;6259352;22;20100;-80
2022/11/14 08:25:09;;;;;;;68.38;26.58;;;;;;;12.64;100.00;98413.31;6275838;22;20098;-82
2022/11/14 08:27:34;;;;;;;62.38;27.15;;;;;;;12.57;100.00;98404.69;6248062;22;20008;-80
2022/11/14 08:30:01;;;;;;;57.80;29.30;;;;;;;12.67;100.00;98410.22;6247856;22;20494;-81
2022/11/14 08:32:27;;;;;;;63.47;28.77;;;;;;;12.79;100.00;98412.91;6247617;22;20050;-79
2022/11/14 08:34:53;;;;;;;60.88;28.50;;;;;;;12.69;100.00;98416.06;6274318;22;20018;-79
2022/11/14 08:37:18;;;;;;;53.63;26.15;;;;;;;12.68;100.00;98411.03;6247436;22;20086;-78
2022/11/14 08:39:43;;;;;;;54.22;26.50;;;;;;;12.75;100.00;98395.13;6273948;22;20541;-79
2022/11/14 08:42:09;;;;;;;49.75;24.65;;;;;;;12.82;100.00;98401.91;6276780;22;20018;-79
2022/11/14 08:44:34;;;;;;;54.53;25.73;;;;;;;12.90;100.00;98403.41;6274278;22;20067;-79
2022/11/14 08:47:01;;;;;;;50.45;25.08;;;;;;;12.80;100.00;98413.72;6273799;22;20008;-79
2022/11/14 08:49:26;;;;;;;49.35;24.88;;;;;;;12.86;100.00;98410.16;6274088;22;20008;-80
2022/11/14 08:51:52;;;;;;;46.38;24.92;;;;;;;12.96;100.00;98413.03;6273923;22;20068;-79
2022/11/14 08:54:18;;;;;;;47.78;24.60;;;;;;;12.90;100.00;98398.16;6222097;22;20008;-79
2022/11/14 08:56:47;;;;;;;47.55;23.98;;;;;;;12.80;100.00;98400.53;6274503;22;20011;-79
2022/11/14 08:59:13;;;;;;;72.32;25.38;;;;;;;12.67;100.00;98388.34;6274372;22;20020;-79
2022/11/14 09:01:38;;;;;;;58.78;24.23;;;;;;;12.66;100.00;98390.19;6273342;22;20322;-79
2022/11/14 09:04:04;;;;;;;47.70;24.70;;;;;;;12.85;100.00;98385.66;6246097;22;20401;-79
2022/11/14 09:06:29;;;;;;;48.33;23.27;;;;;;;13.04;100.00;98395.31;6272314;22;20453;-80
2022/11/14 09:08:55;;;;;;;60.45;24.08;;;;;;;12.89;100.00;98374.69;6274036;22;20015;-79
2022/11/14 09:11:21;;;;;;;49.88;25.52;;;;;;;13.09;100.00;98369.09;6273696;22;20038;-78
2022/11/14 09:13:47;;;;;;;54.50;25.40;;;;;;;13.27;100.00;98361.09;6274667;22;20110;-79
2022/11/14 09:16:13;;;;;;;44.45;22.25;;;;;;;13.39;100.00;98362.94;6274682;22;20050;-78
2022/11/14 09:18:39;;;;;;;49.08;25.23;;;;;;;13.52;100.00;98367.19;6273387;22;20011;-78
2022/11/14 09:21:07;;;;;;;50.45;24.80;;;;;;;13.61;100.00;98370.28;6273713;22;20102;-78
2022/11/14 09:23:33;;;;;;;52.85;27.02;;;;;;;13.69;100.00;98375.19;6273639;22;20072;-78
2022/11/14 09:26:06;;;;;;;45.80;22.65;;;;;;;13.70;100.00;98379.44;6274138;22;20008;-78
2022/11/14 09:28:32;;;;;;;42.97;21.67;;;;;;;13.50;100.00;98377.19;6272694;22;20343;-79
2022/11/14 09:31:06;;;;;;;42.85;21.00;;;;;;;13.52;100.00;98369.84;6273056;22;20022;-79
2022/11/14 09:33:33;;;;;;;39.72;20.90;;;;;;;13.56;100.00;98374.44;6273635;22;20019;-78
2022/11/14 09:36:00;;;;;;;41.45;21.75;;;;;;;13.64;100.00;98370.63;6274120;22;20037;-82
2022/11/14 09:38:26;;;;;;;46.97;23.60;;;;;;;13.65;100.00;98364.31;6275909;22;20322;-81
2022/11/14 09:41:07;;;;;;;49.60;23.38;;;;;;;13.69;100.00;98369.94;6247314;22;20011;-78
2022/11/14 09:43:37;;;;;;;50.70;24.85;;;;;;;13.67;100.00;98369.34;6246244;22;20345;-78
2022/11/14 09:46:11;;;;;;;51.65;23.77;;;;;;;13.78;100.00;98368.56;6273596;22;20043;-79
2022/11/14 09:48:37;;;;;;;51.85;25.13;;;;;;;13.84;100.00;98370.25;6272719;22;20094;-78
2022/11/14 09:51:09;;;;;;;45.15;21.88;;;;;;;13.84;100.00;98364.16;6246490;22;20065;-78
2022/11/14 09:53:45;;;;;;;50.13;22.88;;;;;;;14.03;100.00;98367.47;6275644;22;20445;-81
2022/11/14 09:56:18;;;;;;;40.00;21.10;;;;;;;14.08;100.00;98375.47;6275382;22;20014;-81
2022/11/14 09:58:43;;;;;;;39.67;19.45;;;;;;;14.09;100.00;98390.28;6248325;22;20045;-82
2022/11/14 10:01:31;;;;;;;37.55;19.10;;;;;;;14.09;100.00;98377.06;6247564;22;20011;-78
2022/11/14 10:04:12;;;;;;;34.13;18.75;;;;;;;14.06;100.00;98377.53;6273965;22;20011;-78
2022/11/14 10:07:10;;;;;;;45.80;19.05;;;;;;;14.09;100.00;98377.06;6247530;22;20038;-78
2022/11/14 10:09:50;;;;;;;36.13;19.00;;;;;;;14.03;100.00;98367.47;6217644;22;20038;-78
2022/11/14 10:12:22;;;;;;;38.22;20.35;;;;;;;14.09;100.00;98374.44;6247739;22;20007;-78
2022/11/14 10:14:51;;;;;;;36.70;21.20;;;;;;;14.09;100.00;98371.78;6273673;22;20018;-78
2022/11/14 10:17:35;;;;;;;47.63;22.25;;;;;;;13.96;100.00;98372.09;6274522;22;20011;-78
2022/11/14 10:20:18;;;;;;;47.50;21.75;;;;;;;13.82;100.00;98359.13;6274630;22;20018;-80
2022/11/14 10:22:56;;;;;;;42.67;21.58;;;;;;;13.95;100.00;98367.81;6241412;23;20019;-80
2022/11/14 10:25:28;;;;;;;47.83;21.20;;;;;;;13.97;100.00;98358.63;6243689;22;20426;-80
2022/11/14 10:28:10;;;;;;;41.15;21.83;;;;;;;14.10;100.00;98362.06;6241597;23;20012;-80
2022/11/14 10:30:50;;;;;;;44.17;22.83;;;;;;;13.80;100.00;98361.22;6243494;22;20012;-80
2022/11/14 10:33:30;;;;;;;37.17;20.48;;;;;;;14.07;100.00;98365.97;6241514;23;20019;-80
2022/11/14 10:35:58;;;;;;;43.38;21.35;;;;;;;13.87;100.00;98355.81;6243211;22;20343;-80
2022/11/14 10:38:40;;;;;;;46.22;23.50;;;;;;;13.96;100.00;98357.03;6243270;22;20434;-80
2022/11/14 10:41:08;;;;;;;46.80;23.27;;;;;;;13.92;100.00;98352.44;6241866;23;20004;-80
2022/11/14 10:43:48;;;;;;;42.97;21.08;;;;;;;14.00;100.00;98360.03;6241458;22;20012;-79
2022/11/14 10:46:44;;;;;;;33.78;18.40;;;;;;;13.96;100.00;98350.97;6242338;22;20011;-80
2022/11/14 10:49:30;;;;;;;40.40;20.65;;;;;;;14.10;100.00;98349.66;6242374;23;20016;-86
2022/11/14 10:52:01;;;;;;;69.63;22.25;;;;;;;13.88;100.00;98343.41;6246405;22;20012;-86
2022/11/14 10:54:38;;;;;;;39.17;20.60;;;;;;;14.07;100.00;98347.47;6245302;22;20008;-86
2022/11/14 10:57:14;;;;;;;44.72;21.60;;;;;;;14.15;100.00;98341.03;6246058;22;20008;-85
2022/11/14 10:59:41;;;;;;;37.75;21.10;;;;;;;14.21;100.00;98342.72;6220131;23;20008;-87
2022/11/14 11:02:08;;;;;;;38.30;21.15;;;;;;;14.21;100.00;98332.16;6244618;23;20016;-86
2022/11/14 11:04:35;;;;;;;40.97;21.85;;;;;;;14.12;100.00;98329.09;6244665;23;20016;-86
2022/11/14 11:07:06;;;;;;;42.58;18.95;;;;;;;14.08;100.00;98340.38;6247309;22;20095;-87
2022/11/14 11:12:21;;;;;;;40.47;20.02;;;;;;;14.05;100.00;98323.16;6248114;23;20035;-88